RJOO/ITM METAR and TAF weather

Enter ICAO airport designator
Station Type Date Time Source
RJOO METAR 2022/11/30 10:00 UTC NOAA

RJOO 301000Z 33012KT 9999 FEW015 SCT060 BKN170 10/04 Q1020


Station Type Date Time Source
RJOO Decoded METAR 2022/11/30 10:00 UTC NOAA

Osaka International Airport, Japan (RJOO) 34-47N 135-27E 15M
Nov 30, 2022 - 05:00 AM EST / 2022.11.30 1000 UTC
Wind: from the NNW (330 degrees) at 14 MPH (12 KT):0
Visibility: greater than 7 mile(s):0
Sky conditions: mostly cloudy
Temperature: 50 F (10 C)
Dew Point: 39 F (4 C)
Relative Humidity: 66%
Pressure (altimeter): 30.12 in. Hg (1020 hPa)
ob: RJOO 301000Z 33012KT 9999 FEW015 SCT060 BKN170 10/04 Q1020
cycle: 10

Station Type Date Time Source
RJOO TAF 2022/11/30 06:30 UTC NOAA

TAF RJOO 300505Z 3006/0112 33012KT 9999 FEW020 SCT040

Example: see airport list